createdAt,value
2022-11-15T00:01:27.515Z,51.56
2022-11-15T00:04:16.013Z,51.50
2022-11-15T00:07:03.090Z,51.90
2022-11-15T00:09:50.638Z,51.55
2022-11-15T00:12:37.611Z,52.05
2022-11-15T00:15:24.638Z,51.97
2022-11-15T00:18:15.285Z,51.92
2022-11-15T00:21:08.715Z,51.66
2022-11-15T00:23:55.856Z,51.70
2022-11-15T00:26:42.925Z,51.31
2022-11-15T00:29:29.483Z,51.68
2022-11-15T00:32:16.559Z,51.51
2022-11-15T00:35:03.299Z,51.35
2022-11-15T00:37:51.995Z,52.44
2022-11-15T00:40:38.815Z,51.63
2022-11-15T00:43:26.266Z,51.20
2022-11-15T00:46:13.469Z,50.90
2022-11-15T00:49:01.260Z,50.94
2022-11-15T00:51:48.006Z,50.89
2022-11-15T00:54:36.698Z,51.89
2022-11-15T00:57:23.830Z,51.63
2022-11-15T01:00:11.739Z,51.87
2022-11-15T01:02:58.506Z,51.68
2022-11-15T01:05:45.974Z,51.35
2022-11-15T01:08:33.371Z,51.15
2022-11-15T01:11:22.120Z,51.28
2022-11-15T01:14:09.246Z,51.37
2022-11-15T01:16:56.718Z,51.62
2022-11-15T01:19:43.358Z,51.03
2022-11-15T01:22:30.777Z,50.96
2022-11-15T01:25:17.610Z,50.46
2022-11-15T01:28:06.582Z,52.10
2022-11-15T01:30:53.463Z,51.25
2022-11-15T01:33:40.587Z,50.73
2022-11-15T01:36:27.396Z,50.68
2022-11-15T01:39:14.564Z,50.56
2022-11-15T01:42:01.357Z,51.27
2022-11-15T01:44:51.856Z,51.01
2022-11-15T01:47:42.495Z,50.91
2022-11-15T01:50:33.723Z,50.79
2022-11-15T01:53:23.613Z,50.71
2022-11-15T01:56:14.801Z,50.42
2022-11-15T01:59:06.013Z,50.49
2022-11-15T02:01:55.250Z,50.37
2022-11-15T02:04:44.246Z,50.25
2022-11-15T02:07:34.123Z,50.30
2022-11-15T02:10:23.486Z,50.15
2022-11-15T02:13:12.136Z,49.87
2022-11-15T02:16:11.562Z,49.77
2022-11-15T02:19:10.740Z,49.68
2022-11-15T02:22:07.270Z,49.61
2022-11-15T02:25:06.520Z,49.53
2022-11-15T02:28:12.881Z,49.45
2022-11-15T02:31:07.396Z,49.91
2022-11-15T02:34:02.652Z,49.68
2022-11-15T02:37:01.834Z,49.74
2022-11-15T02:39:53.814Z,49.81
2022-11-15T02:43:08.429Z,50.13
2022-11-15T02:46:02.225Z,49.95
2022-11-15T02:48:51.908Z,49.97
2022-11-15T02:51:39.484Z,49.89
2022-11-15T02:54:28.267Z,49.75
2022-11-15T02:57:20.736Z,49.81
2022-11-15T03:00:10.305Z,49.77
2022-11-15T03:03:15.989Z,49.47
2022-11-15T03:06:16.389Z,49.47
2022-11-15T03:09:10.518Z,49.58
2022-11-15T03:12:03.396Z,49.74
2022-11-15T03:14:56.782Z,49.48
2022-11-15T03:17:51.291Z,49.79
2022-11-15T03:20:39.010Z,49.44
2022-11-15T03:23:31.589Z,49.70
2022-11-15T03:26:23.512Z,49.67
2022-11-15T03:29:16.035Z,49.71
2022-11-15T03:32:08.678Z,49.58
2022-11-15T03:35:00.823Z,49.77
2022-11-15T03:37:53.319Z,50.15
2022-11-15T03:40:44.346Z,50.32
2022-11-15T03:43:38.404Z,50.16
2022-11-15T03:46:33.866Z,50.06
2022-11-15T03:49:27.424Z,49.88
2022-11-15T03:52:14.477Z,50.03
2022-11-15T03:55:03.844Z,50.27
2022-11-15T03:57:55.733Z,50.02
2022-11-15T04:00:42.673Z,50.56
2022-11-15T04:03:30.795Z,50.49
2022-11-15T04:06:17.809Z,50.42
2022-11-15T04:09:05.324Z,50.72
2022-11-15T04:11:51.995Z,50.47
2022-11-15T04:15:00.694Z,50.66
2022-11-15T04:17:49.871Z,51.02
2022-11-15T04:20:54.528Z,50.84
2022-11-15T04:23:59.016Z,50.72
2022-11-15T04:26:46.519Z,50.66
2022-11-15T04:29:39.041Z,50.99
2022-11-15T04:32:27.789Z,51.26
2022-11-15T04:35:14.655Z,50.89
2022-11-15T04:38:03.714Z,51.20
2022-11-15T04:40:50.384Z,51.31
2022-11-15T04:43:37.951Z,51.52
2022-11-15T04:46:25.712Z,51.49
2022-11-15T04:49:14.223Z,51.40
2022-11-15T04:52:01.502Z,51.45
2022-11-15T04:54:49.071Z,51.47
2022-11-15T04:57:35.738Z,51.11
2022-11-15T05:00:22.995Z,51.32
2022-11-15T05:03:29.097Z,51.30
2022-11-15T05:06:18.151Z,50.98
2022-11-15T05:09:05.435Z,51.52
2022-11-15T05:11:52.774Z,51.49
2022-11-15T05:14:39.607Z,51.39
2022-11-15T05:17:26.870Z,51.54
2022-11-15T05:20:14.683Z,51.69
2022-11-15T05:23:03.695Z,51.82
2022-11-15T05:25:50.542Z,51.99
2022-11-15T05:28:38.756Z,51.82
2022-11-15T05:31:26.763Z,52.25
2022-11-15T05:34:14.107Z,53.04
2022-11-15T05:37:01.694Z,53.38
2022-11-15T05:39:50.030Z,53.12
2022-11-15T05:42:36.955Z,53.24
2022-11-15T05:45:27.063Z,52.73
2022-11-15T05:48:15.526Z,53.19
2022-11-15T05:51:04.093Z,52.65
2022-11-15T05:53:52.493Z,52.71
2022-11-15T05:56:41.470Z,52.50
2022-11-15T05:59:31.771Z,52.69
2022-11-15T06:02:18.998Z,52.83
2022-11-15T06:05:06.290Z,53.22
2022-11-15T06:07:53.610Z,53.09
2022-11-15T06:10:40.781Z,53.17
2022-11-15T06:13:29.553Z,53.23
2022-11-15T06:16:16.795Z,53.60
2022-11-15T06:19:03.944Z,52.97
2022-11-15T06:21:51.148Z,52.86
2022-11-15T06:24:38.570Z,52.84
2022-11-15T06:27:25.374Z,52.65
2022-11-15T06:30:14.154Z,52.68
2022-11-15T06:33:02.868Z,52.46
2022-11-15T06:35:49.854Z,52.50
2022-11-15T06:38:37.703Z,52.20
2022-11-15T06:41:25.117Z,51.95
2022-11-15T06:44:12.326Z,51.80
2022-11-15T06:47:00.791Z,51.51
2022-11-15T06:49:47.605Z,51.43
2022-11-15T06:52:35.263Z,51.17
2022-11-15T06:55:22.224Z,51.18
2022-11-15T06:58:09.735Z,50.76
2022-11-15T07:01:02.426Z,50.80
2022-11-15T07:03:51.456Z,50.76
2022-11-15T07:06:38.266Z,50.24
2022-11-15T07:09:25.574Z,50.29
2022-11-15T07:12:12.534Z,50.15
2022-11-15T07:14:59.713Z,50.39
2022-11-15T07:17:46.431Z,50.44
2022-11-15T07:20:35.314Z,49.97
2022-11-15T07:23:22.195Z,50.19
2022-11-15T07:26:09.931Z,50.20
2022-11-15T07:28:56.816Z,49.85
2022-11-15T07:31:44.068Z,49.43
2022-11-15T07:34:30.951Z,49.17
2022-11-15T07:37:19.796Z,49.22
2022-11-15T07:40:07.850Z,49.04
2022-11-15T07:43:00.549Z,49.49
2022-11-15T07:45:48.326Z,49.18
2022-11-15T07:48:44.026Z,49.26
2022-11-15T07:51:32.000Z,48.92
2022-11-15T07:54:21.285Z,48.91
2022-11-15T07:57:10.253Z,48.75
2022-11-15T07:59:58.220Z,48.09
2022-11-15T08:02:45.892Z,47.81
2022-11-15T08:05:33.922Z,47.83
2022-11-15T08:08:21.225Z,47.62
2022-11-15T08:11:10.066Z,47.60
2022-11-15T08:13:57.291Z,47.63
2022-11-15T08:16:44.884Z,47.83
2022-11-15T08:19:31.974Z,47.57
2022-11-15T08:22:19.754Z,47.82
2022-11-15T08:25:07.220Z,47.49
2022-11-15T08:27:59.663Z,47.17
2022-11-15T08:30:46.917Z,47.14
2022-11-15T08:33:37.502Z,47.35
2022-11-15T08:36:24.186Z,47.27
2022-11-15T08:39:13.516Z,47.30
2022-11-15T08:42:01.408Z,46.80
2022-11-15T08:44:50.511Z,47.11
2022-11-15T08:47:37.751Z,47.23
2022-11-15T08:50:25.528Z,46.56
2022-11-15T08:53:14.899Z,46.62
2022-11-15T08:56:02.711Z,46.53
2022-11-15T08:58:49.679Z,46.21
2022-11-15T09:01:38.246Z,46.10
2022-11-15T09:04:26.348Z,46.11
2022-11-15T09:07:13.889Z,46.02
2022-11-15T09:10:01.502Z,45.72
2022-11-15T09:12:49.621Z,45.43
2022-11-15T09:15:37.001Z,45.65
2022-11-15T09:18:25.729Z,45.62
2022-11-15T09:21:13.303Z,45.38
2022-11-15T09:24:00.873Z,45.61
2022-11-15T09:26:48.107Z,45.23
2022-11-15T09:29:35.909Z,45.20
2022-11-15T09:32:23.880Z,45.12
2022-11-15T09:35:12.598Z,44.93
2022-11-15T09:38:00.378Z,44.63
2022-11-15T09:41:08.220Z,44.56
2022-11-15T09:44:08.866Z,44.29
2022-11-15T09:47:07.364Z,43.86
2022-11-15T09:50:03.286Z,43.73
2022-11-15T09:52:40.339Z,43.27
2022-11-15T09:55:11.975Z,43.11
2022-11-15T09:57:47.680Z,42.97
2022-11-15T10:03:14.488Z,42.86
2022-11-15T10:05:45.365Z,43.01
2022-11-15T10:08:34.103Z,42.65
2022-11-15T10:11:35.549Z,43.01
2022-11-15T10:13:58.681Z,42.85
2022-11-15T10:16:57.874Z,42.72
2022-11-15T10:19:34.564Z,42.63
2022-11-15T10:22:20.103Z,42.81
2022-11-15T10:24:52.899Z,42.89
2022-11-15T10:27:22.076Z,42.79
2022-11-15T10:29:52.601Z,42.50
2022-11-15T10:32:23.289Z,42.17
2022-11-15T10:34:52.532Z,42.60
2022-11-15T10:37:31.456Z,42.25
2022-11-15T10:40:22.732Z,42.13
2022-11-15T10:43:07.400Z,41.75
2022-11-15T10:45:36.307Z,41.72
2022-11-15T10:48:27.523Z,41.29
2022-11-15T10:50:57.115Z,41.02
2022-11-15T10:53:33.590Z,41.21
2022-11-15T10:56:09.175Z,41.15
2022-11-15T10:58:43.390Z,40.93
2022-11-15T11:01:16.239Z,40.75
2022-11-15T11:03:46.696Z,41.02
2022-11-15T11:06:17.731Z,41.00
2022-11-15T11:08:57.815Z,40.95
2022-11-15T11:11:48.125Z,40.62
2022-11-15T11:14:28.109Z,40.97
2022-11-15T11:17:06.906Z,40.49
2022-11-15T11:20:01.529Z,40.58
2022-11-15T11:22:41.216Z,40.57
2022-11-15T11:25:25.219Z,40.40
2022-11-15T11:28:11.365Z,40.44
2022-11-15T11:30:51.400Z,40.49
2022-11-15T11:33:24.256Z,40.51
2022-11-15T11:36:05.996Z,40.37
2022-11-15T11:38:45.646Z,40.34
2022-11-15T11:41:26.568Z,40.52
2022-11-15T11:44:09.543Z,40.50
2022-11-15T11:46:54.168Z,40.47
2022-11-15T11:49:30.373Z,40.83
2022-11-15T11:52:05.085Z,40.69
2022-11-15T11:54:42.052Z,40.77
2022-11-15T11:57:19.253Z,40.92
2022-11-15T11:59:55.479Z,40.88
2022-11-15T12:02:36.749Z,40.96
2022-11-15T12:05:15.457Z,41.18
2022-11-15T12:07:46.709Z,41.26
2022-11-15T12:10:23.050Z,41.31
2022-11-15T12:13:01.393Z,41.49
2022-11-15T12:15:37.685Z,41.60
2022-11-15T12:18:06.421Z,41.55
2022-11-15T12:20:41.835Z,41.48
2022-11-15T12:23:18.009Z,41.40
2022-11-15T12:25:52.578Z,41.59
2022-11-15T12:28:33.532Z,41.32
2022-11-15T12:31:08.286Z,41.23
2022-11-15T12:33:40.718Z,41.16
2022-11-15T12:36:13.465Z,41.08
2022-11-15T12:38:57.398Z,41.08
2022-11-15T12:41:28.219Z,41.11
2022-11-15T12:43:58.521Z,41.33
2022-11-15T12:47:03.568Z,41.16
2022-11-15T12:49:46.525Z,41.02
2022-11-15T12:52:15.606Z,41.09
2022-11-15T12:55:25.875Z,40.94
2022-11-15T12:57:54.858Z,41.54
2022-11-15T13:00:41.540Z,41.14
2022-11-15T13:03:31.104Z,41.29
2022-11-15T13:06:07.564Z,41.53
2022-11-15T13:08:48.341Z,41.70
2022-11-15T13:11:59.528Z,41.54
2022-11-15T13:14:49.945Z,41.64
2022-11-15T13:17:38.684Z,41.50
2022-11-15T13:20:22.865Z,41.40
2022-11-15T13:22:53.423Z,41.44
2022-11-15T13:25:38.393Z,41.39
2022-11-15T13:28:20.623Z,41.36
2022-11-15T13:30:54.110Z,41.25
2022-11-15T13:33:25.893Z,41.18
2022-11-15T13:35:59.008Z,41.21
2022-11-15T13:38:30.564Z,41.45
2022-11-15T13:41:01.470Z,41.53
2022-11-15T13:43:36.232Z,41.69
2022-11-15T13:46:12.558Z,42.02
2022-11-15T13:48:41.270Z,42.31
2022-11-15T13:51:22.298Z,42.64
2022-11-15T13:53:55.821Z,42.67
2022-11-15T13:56:25.423Z,42.84
2022-11-15T13:58:55.401Z,42.82
2022-11-15T14:01:25.233Z,42.52
2022-11-15T14:03:58.330Z,42.93
2022-11-15T14:06:30.836Z,43.03
2022-11-15T14:09:26.650Z,42.87
2022-11-15T14:11:57.144Z,43.09
2022-11-15T14:14:27.249Z,42.97
2022-11-15T14:16:57.584Z,42.82
2022-11-15T14:19:42.447Z,42.68
2022-11-15T14:22:22.905Z,42.70
2022-11-15T14:25:18.763Z,43.04
2022-11-15T14:28:12.251Z,43.08
2022-11-15T14:30:41.733Z,43.23
2022-11-15T14:33:30.520Z,43.38
2022-11-15T14:36:00.538Z,43.45
2022-11-15T14:38:30.983Z,43.58
2022-11-15T14:40:59.826Z,43.54
2022-11-15T14:43:28.587Z,43.63
2022-11-15T14:45:57.365Z,43.57
2022-11-15T14:48:26.226Z,43.53
2022-11-15T14:50:54.892Z,43.65
2022-11-15T14:53:23.790Z,43.85
2022-11-15T14:55:53.640Z,43.91
2022-11-15T14:58:22.649Z,43.88
2022-11-15T15:00:51.728Z,44.02
2022-11-15T15:03:20.600Z,44.13
2022-11-15T15:05:49.107Z,44.01
2022-11-15T15:08:18.077Z,44.31
2022-11-15T15:10:47.540Z,44.25
2022-11-15T15:13:20.475Z,44.06
2022-11-15T15:15:50.372Z,44.16
2022-11-15T15:18:21.050Z,44.13
2022-11-15T15:20:57.870Z,44.00
2022-11-15T15:23:30.421Z,44.23
2022-11-15T15:25:59.819Z,44.34
2022-11-15T15:28:34.344Z,44.37
2022-11-15T15:31:03.718Z,44.62
2022-11-15T15:33:32.569Z,44.83
2022-11-15T15:36:01.277Z,45.15
2022-11-15T15:38:30.450Z,44.94
2022-11-15T15:41:00.645Z,45.41
2022-11-15T15:43:30.871Z,45.86
2022-11-15T15:45:59.686Z,45.45
2022-11-15T15:48:28.874Z,45.47
2022-11-15T15:50:57.493Z,45.44
2022-11-15T15:53:26.385Z,45.62
2022-11-15T15:55:57.993Z,45.60
2022-11-15T15:58:27.374Z,45.72
2022-11-15T16:00:57.329Z,45.80
2022-11-15T16:03:26.421Z,45.59
2022-11-15T16:05:55.425Z,48.40
2022-11-15T16:08:27.528Z,49.83
2022-11-15T16:10:56.219Z,49.36
2022-11-15T16:13:25.313Z,48.37
2022-11-15T16:15:58.199Z,48.00
2022-11-15T16:18:27.385Z,48.06
2022-11-15T16:20:57.721Z,47.78
2022-11-15T16:23:26.640Z,47.24
2022-11-15T16:25:57.206Z,47.24
2022-11-15T16:28:27.981Z,47.06
2022-11-15T16:31:04.712Z,47.08
2022-11-15T16:33:34.389Z,47.02
2022-11-15T16:36:03.569Z,48.27
2022-11-15T16:38:33.228Z,49.00
2022-11-15T16:41:01.908Z,48.95
2022-11-15T16:43:30.740Z,49.35
2022-11-15T16:45:59.741Z,48.61
2022-11-15T16:48:30.704Z,48.73
2022-11-15T16:51:00.354Z,48.58
2022-11-15T16:53:29.567Z,48.82
2022-11-15T16:55:58.628Z,48.95
2022-11-15T16:58:27.591Z,48.78
2022-11-15T17:00:58.386Z,49.35
2022-11-15T17:03:27.788Z,48.81
2022-11-15T17:06:00.789Z,49.09
2022-11-15T17:08:30.191Z,49.19
2022-11-15T17:10:59.095Z,49.38
2022-11-15T17:13:27.898Z,49.81
2022-11-15T17:16:06.020Z,50.42
2022-11-15T17:18:35.460Z,50.99
2022-11-15T17:21:10.222Z,50.66
2022-11-15T17:23:39.264Z,51.19
2022-11-15T17:26:28.339Z,51.97
2022-11-15T17:28:57.889Z,51.78
2022-11-15T17:31:27.237Z,51.67
2022-11-15T17:33:56.820Z,51.74
2022-11-15T17:36:27.335Z,51.62
2022-11-15T17:38:59.510Z,51.47
2022-11-15T17:41:29.335Z,51.46
2022-11-15T17:43:59.470Z,53.31
2022-11-15T17:46:29.166Z,52.40
2022-11-15T17:48:58.980Z,52.52
2022-11-15T17:51:28.973Z,52.54
2022-11-15T17:53:57.909Z,52.41
2022-11-15T17:56:28.188Z,52.66
2022-11-15T17:58:59.130Z,52.60
2022-11-15T18:01:30.309Z,52.64
2022-11-15T18:04:02.098Z,52.82
2022-11-15T18:06:34.320Z,52.71
2022-11-15T18:09:04.534Z,52.69
2022-11-15T18:11:35.112Z,53.04
2022-11-15T18:14:06.297Z,53.03
2022-11-15T18:16:36.665Z,52.84
2022-11-15T18:19:09.120Z,53.32
2022-11-15T18:21:56.318Z,53.91
2022-11-15T18:24:28.178Z,53.74
2022-11-15T18:26:59.066Z,54.55
2022-11-15T18:29:28.637Z,56.28
2022-11-15T18:31:58.801Z,56.28
2022-11-15T18:34:32.556Z,57.31
2022-11-15T18:37:03.795Z,57.36
2022-11-15T18:39:32.780Z,56.24
2022-11-15T18:42:01.772Z,56.06
2022-11-15T18:44:31.569Z,55.81
2022-11-15T18:47:00.226Z,55.87
2022-11-15T18:49:29.802Z,55.58
2022-11-15T18:52:00.066Z,55.52
2022-11-15T18:54:31.644Z,55.71
2022-11-15T18:57:23.312Z,55.68
2022-11-15T18:59:52.650Z,56.42
2022-11-15T19:02:21.569Z,56.41
2022-11-15T19:04:51.084Z,56.13
2022-11-15T19:07:20.053Z,55.77
2022-11-15T19:09:51.601Z,55.59
2022-11-15T19:12:22.126Z,55.86
2022-11-15T19:15:20.519Z,55.83
2022-11-15T19:17:49.421Z,56.62
2022-11-15T19:20:19.023Z,57.20
2022-11-15T19:22:47.956Z,56.81
2022-11-15T19:25:19.130Z,57.01
2022-11-15T19:27:47.830Z,57.08
2022-11-15T19:30:17.244Z,57.52
2022-11-15T19:32:47.018Z,58.02
2022-11-15T19:35:15.831Z,58.24
2022-11-15T19:37:44.392Z,57.84
2022-11-15T19:40:13.530Z,57.71
2022-11-15T19:42:43.530Z,57.91
2022-11-15T19:45:12.884Z,58.99
2022-11-15T19:47:41.644Z,60.02
2022-11-15T19:50:11.569Z,59.89
2022-11-15T19:52:43.803Z,59.12
2022-11-15T19:55:14.294Z,58.76
2022-11-15T19:57:44.537Z,58.42
2022-11-15T20:00:15.031Z,58.31
2022-11-15T20:02:43.589Z,58.23
2022-11-15T20:05:18.161Z,57.74
2022-11-15T20:07:49.557Z,57.58
2022-11-15T20:10:38.815Z,57.46
2022-11-15T20:13:08.718Z,57.39
2022-11-15T20:15:37.487Z,56.88
2022-11-15T20:18:06.190Z,56.97
2022-11-15T20:20:35.732Z,56.77
2022-11-15T20:23:04.184Z,57.03
2022-11-15T20:25:33.160Z,59.22
2022-11-15T20:28:01.504Z,59.73
2022-11-15T20:30:31.758Z,60.04
2022-11-15T20:33:00.288Z,59.41
2022-11-15T20:35:29.572Z,59.36
2022-11-15T20:37:58.050Z,58.82
2022-11-15T20:40:26.992Z,59.13
2022-11-15T20:42:55.555Z,59.14
2022-11-15T20:45:24.922Z,59.66
2022-11-15T20:47:57.724Z,60.03
2022-11-15T20:50:42.137Z,61.05
2022-11-15T20:53:12.764Z,61.37
2022-11-15T20:55:45.218Z,62.64
2022-11-15T20:58:13.858Z,64.20
2022-11-15T21:00:45.165Z,65.87
2022-11-15T21:03:16.444Z,69.51
2022-11-15T21:05:49.573Z,68.56
2022-11-15T21:09:03.530Z,66.31
2022-11-15T21:12:10.429Z,67.33
2022-11-15T21:14:40.059Z,71.15
2022-11-15T21:19:55.664Z,73.82
2022-11-15T21:22:32.574Z,72.57
2022-11-15T21:25:02.581Z,69.36
2022-11-15T21:27:34.748Z,69.49
2022-11-15T21:30:05.470Z,71.58
2022-11-15T21:32:35.119Z,73.50
2022-11-15T21:35:06.398Z,74.33
2022-11-15T21:37:35.987Z,72.99
2022-11-15T21:40:07.133Z,71.79
2022-11-15T21:42:36.762Z,71.86
2022-11-15T21:45:06.359Z,70.68
2022-11-15T21:47:35.429Z,69.77
2022-11-15T21:50:06.308Z,70.91
2022-11-15T21:52:36.016Z,69.71
2022-11-15T21:55:06.109Z,67.84
2022-11-15T21:57:35.385Z,66.53
2022-11-15T22:00:23.075Z,65.85
2022-11-15T22:02:52.169Z,64.50
2022-11-15T22:05:25.513Z,63.43
2022-11-15T22:07:54.676Z,62.79
2022-11-15T22:10:23.538Z,62.38
2022-11-15T22:12:52.897Z,62.24
2022-11-15T22:15:42.532Z,61.64
2022-11-15T22:18:13.799Z,61.44
2022-11-15T22:20:45.316Z,61.43
2022-11-15T22:23:14.921Z,60.70
2022-11-15T22:25:44.858Z,60.60
2022-11-15T22:28:14.302Z,60.16
2022-11-15T22:30:43.163Z,59.80
2022-11-15T22:33:12.450Z,59.13
2022-11-15T22:35:41.981Z,59.15
2022-11-15T22:38:12.813Z,58.67
2022-11-15T22:40:42.631Z,58.10
2022-11-15T22:43:13.342Z,57.98
2022-11-15T22:45:49.024Z,57.76
2022-11-15T22:48:18.339Z,57.70
2022-11-15T22:50:46.984Z,57.45
2022-11-15T22:53:17.508Z,57.47
2022-11-15T22:55:50.972Z,57.83
2022-11-15T22:58:20.629Z,57.74
2022-11-15T23:00:53.577Z,57.66
2022-11-15T23:03:23.800Z,57.28
2022-11-15T23:05:52.589Z,57.44
2022-11-15T23:08:24.789Z,57.70
2022-11-15T23:11:10.984Z,57.52
2022-11-15T23:13:40.175Z,57.63
2022-11-15T23:16:24.055Z,57.96
2022-11-15T23:18:55.067Z,58.49
2022-11-15T23:21:42.953Z,58.52
2022-11-15T23:24:15.493Z,59.10
2022-11-15T23:26:45.446Z,59.34
2022-11-15T23:29:16.735Z,59.24
2022-11-15T23:32:03.340Z,59.30
2022-11-15T23:34:33.493Z,59.10
2022-11-15T23:37:02.145Z,59.81
2022-11-15T23:39:32.498Z,59.51
2022-11-15T23:42:05.945Z,59.65
2022-11-15T23:44:38.027Z,59.35
2022-11-15T23:47:06.719Z,59.51
2022-11-15T23:49:35.708Z,59.01
2022-11-15T23:52:04.552Z,59.17
2022-11-15T23:54:34.902Z,59.76
2022-11-15T23:57:03.904Z,62.16
2022-11-15T23:59:32.830Z,65.38
